sensor_id;sensor_type;location;lat;lon;timestamp;P1;durP1;ratioP1;P2;durP2;ratioP2
12385;SDS011;6257;57.634;18.310;2022-08-07T00:00:47;2.10;;;0.50;;
12385;SDS011;6257;57.634;18.310;2022-08-07T00:03:15;3.97;;;0.80;;
12385;SDS011;6257;57.634;18.310;2022-08-07T00:05:43;1.30;;;0.50;;
12385;SDS011;6257;57.634;18.310;2022-08-07T00:08:14;0.87;;;0.50;;
12385;SDS011;6257;57.634;18.310;2022-08-07T00:10:41;1.27;;;0.50;;
12385;SDS011;6257;57.634;18.310;2022-08-07T00:13:08;3.00;;;0.90;;
12385;SDS011;6257;57.634;18.310;2022-08-07T00:15:36;2.60;;;0.70;;
12385;SDS011;6257;57.634;18.310;2022-08-07T00:18:03;2.40;;;0.77;;
12385;SDS011;6257;57.634;18.310;2022-08-07T00:20:30;1.73;;;0.80;;
12385;SDS011;6257;57.634;18.310;2022-08-07T00:22:59;1.50;;;0.50;;
12385;SDS011;6257;57.634;18.310;2022-08-07T00:25:26;2.20;;;0.70;;
12385;SDS011;6257;57.634;18.310;2022-08-07T00:27:53;1.23;;;0.50;;
12385;SDS011;6257;57.634;18.310;2022-08-07T00:30:20;1.60;;;0.43;;
12385;SDS011;6257;57.634;18.310;2022-08-07T00:32:48;2.13;;;0.60;;
12385;SDS011;6257;57.634;18.310;2022-08-07T00:35:16;1.23;;;0.50;;
12385;SDS011;6257;57.634;18.310;2022-08-07T00:37:44;1.60;;;0.60;;
12385;SDS011;6257;57.634;18.310;2022-08-07T00:40:13;0.73;;;0.53;;
12385;SDS011;6257;57.634;18.310;2022-08-07T00:42:41;3.07;;;0.80;;
12385;SDS011;6257;57.634;18.310;2022-08-07T00:45:09;2.40;;;0.57;;
12385;SDS011;6257;57.634;18.310;2022-08-07T00:47:37;3.33;;;0.60;;
12385;SDS011;6257;57.634;18.310;2022-08-07T00:50:05;4.40;;;1.17;;
12385;SDS011;6257;57.634;18.310;2022-08-07T00:52:32;1.83;;;0.80;;
12385;SDS011;6257;57.634;18.310;2022-08-07T00:54:59;1.27;;;0.80;;
12385;SDS011;6257;57.634;18.310;2022-08-07T00:57:28;2.83;;;0.80;;
12385;SDS011;6257;57.634;18.310;2022-08-07T00:59:55;1.90;;;0.70;;
12385;SDS011;6257;57.634;18.310;2022-08-07T01:02:23;2.43;;;0.90;;
12385;SDS011;6257;57.634;18.310;2022-08-07T01:04:50;2.90;;;0.60;;
12385;SDS011;6257;57.634;18.310;2022-08-07T01:07:18;2.63;;;0.70;;
12385;SDS011;6257;57.634;18.310;2022-08-07T01:09:46;3.23;;;0.70;;
12385;SDS011;6257;57.634;18.310;2022-08-07T01:12:13;3.60;;;0.90;;
12385;SDS011;6257;57.634;18.310;2022-08-07T01:14:44;4.13;;;0.90;;
12385;SDS011;6257;57.634;18.310;2022-08-07T01:17:11;4.07;;;1.00;;
12385;SDS011;6257;57.634;18.310;2022-08-07T01:19:39;4.90;;;1.10;;
12385;SDS011;6257;57.634;18.310;2022-08-07T01:22:09;2.20;;;0.70;;
12385;SDS011;6257;57.634;18.310;2022-08-07T01:24:37;4.03;;;0.87;;
12385;SDS011;6257;57.634;18.310;2022-08-07T01:27:04;2.50;;;0.90;;
12385;SDS011;6257;57.634;18.310;2022-08-07T01:29:31;3.47;;;1.03;;
12385;SDS011;6257;57.634;18.310;2022-08-07T01:31:59;4.17;;;1.10;;
12385;SDS011;6257;57.634;18.310;2022-08-07T01:34:29;3.50;;;1.00;;
12385;SDS011;6257;57.634;18.310;2022-08-07T01:36:57;5.17;;;1.30;;
12385;SDS011;6257;57.634;18.310;2022-08-07T01:39:25;2.30;;;1.00;;
12385;SDS011;6257;57.634;18.310;2022-08-07T01:41:53;4.13;;;1.13;;
12385;SDS011;6257;57.634;18.310;2022-08-07T01:44:20;2.60;;;0.80;;
12385;SDS011;6257;57.634;18.310;2022-08-07T01:46:48;3.90;;;0.90;;
12385;SDS011;6257;57.634;18.310;2022-08-07T01:49:16;2.67;;;1.00;;
12385;SDS011;6257;57.634;18.310;2022-08-07T01:51:43;2.73;;;0.90;;
12385;SDS011;6257;57.634;18.310;2022-08-07T01:54:13;4.70;;;0.90;;
12385;SDS011;6257;57.634;18.310;2022-08-07T01:56:45;8.87;;;1.33;;
12385;SDS011;6257;57.634;18.310;2022-08-07T01:59:17;2.33;;;1.10;;
12385;SDS011;6257;57.634;18.310;2022-08-07T02:01:51;3.83;;;1.43;;
12385;SDS011;6257;57.634;18.310;2022-08-07T02:04:23;1.77;;;0.90;;
12385;SDS011;6257;57.634;18.310;2022-08-07T02:06:52;3.83;;;1.27;;
12385;SDS011;6257;57.634;18.310;2022-08-07T02:09:22;2.93;;;0.90;;
12385;SDS011;6257;57.634;18.310;2022-08-07T02:11:51;2.57;;;1.13;;
12385;SDS011;6257;57.634;18.310;2022-08-07T02:14:20;4.43;;;1.27;;
12385;SDS011;6257;57.634;18.310;2022-08-07T02:16:49;5.43;;;1.20;;
12385;SDS011;6257;57.634;18.310;2022-08-07T02:19:18;4.83;;;1.20;;
12385;SDS011;6257;57.634;18.310;2022-08-07T02:21:47;4.97;;;1.20;;
12385;SDS011;6257;57.634;18.310;2022-08-07T02:24:16;4.47;;;1.30;;
12385;SDS011;6257;57.634;18.310;2022-08-07T02:26:44;3.20;;;1.00;;
12385;SDS011;6257;57.634;18.310;2022-08-07T02:29:14;4.37;;;1.10;;
12385;SDS011;6257;57.634;18.310;2022-08-07T02:31:42;3.03;;;1.50;;
12385;SDS011;6257;57.634;18.310;2022-08-07T02:34:10;5.93;;;1.40;;
12385;SDS011;6257;57.634;18.310;2022-08-07T02:36:39;4.10;;;1.30;;
12385;SDS011;6257;57.634;18.310;2022-08-07T02:39:07;5.63;;;1.40;;
12385;SDS011;6257;57.634;18.310;2022-08-07T02:41:35;5.27;;;1.30;;
12385;SDS011;6257;57.634;18.310;2022-08-07T02:44:03;5.73;;;1.50;;
12385;SDS011;6257;57.634;18.310;2022-08-07T02:46:32;4.07;;;1.40;;
12385;SDS011;6257;57.634;18.310;2022-08-07T02:49:02;4.87;;;1.33;;
12385;SDS011;6257;57.634;18.310;2022-08-07T02:51:29;5.07;;;1.57;;
12385;SDS011;6257;57.634;18.310;2022-08-07T02:54:00;5.80;;;1.50;;
12385;SDS011;6257;57.634;18.310;2022-08-07T02:56:29;5.43;;;1.20;;
12385;SDS011;6257;57.634;18.310;2022-08-07T02:58:59;6.03;;;1.77;;
12385;SDS011;6257;57.634;18.310;2022-08-07T03:01:29;6.03;;;1.87;;
12385;SDS011;6257;57.634;18.310;2022-08-07T03:03:59;7.60;;;1.57;;
12385;SDS011;6257;57.634;18.310;2022-08-07T03:06:27;5.20;;;1.40;;
12385;SDS011;6257;57.634;18.310;2022-08-07T03:08:56;3.47;;;1.40;;
12385;SDS011;6257;57.634;18.310;2022-08-07T03:11:23;5.93;;;1.73;;
12385;SDS011;6257;57.634;18.310;2022-08-07T03:13:50;5.90;;;1.70;;
12385;SDS011;6257;57.634;18.310;2022-08-07T03:16:18;6.17;;;1.73;;
12385;SDS011;6257;57.634;18.310;2022-08-07T03:18:47;7.17;;;1.70;;
12385;SDS011;6257;57.634;18.310;2022-08-07T03:21:14;9.33;;;1.70;;
12385;SDS011;6257;57.634;18.310;2022-08-07T03:23:42;9.63;;;1.67;;
12385;SDS011;6257;57.634;18.310;2022-08-07T03:26:12;6.23;;;1.83;;
12385;SDS011;6257;57.634;18.310;2022-08-07T03:28:44;4.97;;;1.60;;
12385;SDS011;6257;57.634;18.310;2022-08-07T03:31:12;8.00;;;1.70;;
12385;SDS011;6257;57.634;18.310;2022-08-07T03:33:45;5.73;;;1.80;;
12385;SDS011;6257;57.634;18.310;2022-08-07T03:36:17;9.33;;;1.97;;
12385;SDS011;6257;57.634;18.310;2022-08-07T03:38:45;8.00;;;1.83;;
12385;SDS011;6257;57.634;18.310;2022-08-07T03:41:14;7.77;;;1.60;;
12385;SDS011;6257;57.634;18.310;2022-08-07T03:43:42;8.37;;;2.07;;
12385;SDS011;6257;57.634;18.310;2022-08-07T03:46:09;7.80;;;1.90;;
12385;SDS011;6257;57.634;18.310;2022-08-07T03:48:38;8.00;;;1.63;;
12385;SDS011;6257;57.634;18.310;2022-08-07T03:51:07;8.03;;;1.90;;
12385;SDS011;6257;57.634;18.310;2022-08-07T03:53:35;7.33;;;1.80;;
12385;SDS011;6257;57.634;18.310;2022-08-07T03:56:04;5.03;;;1.50;;
12385;SDS011;6257;57.634;18.310;2022-08-07T03:58:33;6.10;;;2.00;;
12385;SDS011;6257;57.634;18.310;2022-08-07T04:01:00;5.50;;;1.87;;
12385;SDS011;6257;57.634;18.310;2022-08-07T04:03:30;9.03;;;2.10;;
12385;SDS011;6257;57.634;18.310;2022-08-07T04:05:57;7.40;;;1.60;;
12385;SDS011;6257;57.634;18.310;2022-08-07T04:08:26;5.73;;;1.70;;
12385;SDS011;6257;57.634;18.310;2022-08-07T04:10:54;6.23;;;1.97;;
12385;SDS011;6257;57.634;18.310;2022-08-07T04:13:22;5.83;;;1.63;;
12385;SDS011;6257;57.634;18.310;2022-08-07T04:15:50;5.70;;;1.80;;
12385;SDS011;6257;57.634;18.310;2022-08-07T04:18:17;7.80;;;1.90;;
12385;SDS011;6257;57.634;18.310;2022-08-07T04:20:45;7.97;;;2.20;;
12385;SDS011;6257;57.634;18.310;2022-08-07T04:23:12;5.47;;;1.97;;
12385;SDS011;6257;57.634;18.310;2022-08-07T04:25:42;7.73;;;1.70;;
12385;SDS011;6257;57.634;18.310;2022-08-07T04:28:10;7.03;;;1.97;;
12385;SDS011;6257;57.634;18.310;2022-08-07T04:30:37;6.10;;;1.73;;
12385;SDS011;6257;57.634;18.310;2022-08-07T04:33:05;9.37;;;1.93;;
12385;SDS011;6257;57.634;18.310;2022-08-07T04:35:34;7.50;;;1.87;;
12385;SDS011;6257;57.634;18.310;2022-08-07T04:38:05;6.60;;;1.90;;
12385;SDS011;6257;57.634;18.310;2022-08-07T04:40:33;8.10;;;2.27;;
12385;SDS011;6257;57.634;18.310;2022-08-07T04:43:01;8.17;;;2.20;;
12385;SDS011;6257;57.634;18.310;2022-08-07T04:45:32;8.80;;;2.03;;
12385;SDS011;6257;57.634;18.310;2022-08-07T04:48:06;5.70;;;1.47;;
12385;SDS011;6257;57.634;18.310;2022-08-07T04:50:40;6.77;;;1.63;;
12385;SDS011;6257;57.634;18.310;2022-08-07T04:53:11;5.63;;;1.60;;
12385;SDS011;6257;57.634;18.310;2022-08-07T04:55:48;6.90;;;1.80;;
12385;SDS011;6257;57.634;18.310;2022-08-07T04:58:21;5.63;;;1.93;;
12385;SDS011;6257;57.634;18.310;2022-08-07T05:00:54;5.90;;;1.63;;
12385;SDS011;6257;57.634;18.310;2022-08-07T05:03:25;7.30;;;1.83;;
12385;SDS011;6257;57.634;18.310;2022-08-07T05:05:58;7.77;;;2.30;;
12385;SDS011;6257;57.634;18.310;2022-08-07T05:08:33;8.83;;;1.83;;
12385;SDS011;6257;57.634;18.310;2022-08-07T05:11:10;3.73;;;1.67;;
12385;SDS011;6257;57.634;18.310;2022-08-07T05:13:44;7.03;;;2.10;;
12385;SDS011;6257;57.634;18.310;2022-08-07T05:16:17;9.63;;;2.00;;
12385;SDS011;6257;57.634;18.310;2022-08-07T05:18:47;6.73;;;1.80;;
12385;SDS011;6257;57.634;18.310;2022-08-07T05:21:20;7.60;;;2.00;;
12385;SDS011;6257;57.634;18.310;2022-08-07T05:23:52;8.40;;;2.27;;
12385;SDS011;6257;57.634;18.310;2022-08-07T05:26:23;7.73;;;1.90;;
12385;SDS011;6257;57.634;18.310;2022-08-07T05:28:55;6.63;;;2.37;;
12385;SDS011;6257;57.634;18.310;2022-08-07T05:31:24;5.83;;;2.20;;
12385;SDS011;6257;57.634;18.310;2022-08-07T05:33:53;6.27;;;1.67;;
12385;SDS011;6257;57.634;18.310;2022-08-07T05:36:21;6.17;;;1.90;;
12385;SDS011;6257;57.634;18.310;2022-08-07T05:38:50;10.30;;;2.23;;
12385;SDS011;6257;57.634;18.310;2022-08-07T05:41:18;10.10;;;2.67;;
12385;SDS011;6257;57.634;18.310;2022-08-07T05:43:48;7.50;;;2.17;;
12385;SDS011;6257;57.634;18.310;2022-08-07T05:46:17;8.57;;;2.33;;
12385;SDS011;6257;57.634;18.310;2022-08-07T05:48:45;8.30;;;2.20;;
12385;SDS011;6257;57.634;18.310;2022-08-07T05:51:14;8.37;;;2.00;;
12385;SDS011;6257;57.634;18.310;2022-08-07T05:53:42;10.57;;;2.10;;
12385;SDS011;6257;57.634;18.310;2022-08-07T05:56:09;7.77;;;2.43;;
12385;SDS011;6257;57.634;18.310;2022-08-07T05:58:38;9.83;;;2.07;;
12385;SDS011;6257;57.634;18.310;2022-08-07T06:01:06;7.83;;;1.67;;
12385;SDS011;6257;57.634;18.310;2022-08-07T06:03:38;6.80;;;2.20;;
12385;SDS011;6257;57.634;18.310;2022-08-07T06:06:07;9.93;;;2.20;;
12385;SDS011;6257;57.634;18.310;2022-08-07T06:08:34;11.57;;;2.10;;
12385;SDS011;6257;57.634;18.310;2022-08-07T06:11:01;11.00;;;1.93;;
12385;SDS011;6257;57.634;18.310;2022-08-07T06:13:29;5.83;;;1.70;;
12385;SDS011;6257;57.634;18.310;2022-08-07T06:15:56;10.17;;;2.33;;
12385;SDS011;6257;57.634;18.310;2022-08-07T06:18:24;9.37;;;2.33;;
12385;SDS011;6257;57.634;18.310;2022-08-07T06:20:53;6.83;;;1.60;;
12385;SDS011;6257;57.634;18.310;2022-08-07T06:23:20;8.37;;;2.17;;
12385;SDS011;6257;57.634;18.310;2022-08-07T06:25:47;9.07;;;2.33;;
12385;SDS011;6257;57.634;18.310;2022-08-07T06:28:15;8.23;;;2.10;;
12385;SDS011;6257;57.634;18.310;2022-08-07T06:30:42;6.43;;;2.00;;
12385;SDS011;6257;57.634;18.310;2022-08-07T06:33:09;8.50;;;2.40;;
12385;SDS011;6257;57.634;18.310;2022-08-07T06:35:36;9.13;;;2.17;;
12385;SDS011;6257;57.634;18.310;2022-08-07T06:38:05;11.13;;;2.40;;
12385;SDS011;6257;57.634;18.310;2022-08-07T06:40:34;7.40;;;2.10;;
12385;SDS011;6257;57.634;18.310;2022-08-07T06:43:06;7.67;;;2.07;;
12385;SDS011;6257;57.634;18.310;2022-08-07T06:45:35;6.83;;;2.20;;
12385;SDS011;6257;57.634;18.310;2022-08-07T06:48:03;6.43;;;2.00;;
12385;SDS011;6257;57.634;18.310;2022-08-07T06:50:31;5.77;;;2.13;;
12385;SDS011;6257;57.634;18.310;2022-08-07T06:52:59;8.93;;;2.27;;
12385;SDS011;6257;57.634;18.310;2022-08-07T06:55:30;6.10;;;1.80;;
12385;SDS011;6257;57.634;18.310;2022-08-07T06:57:59;6.27;;;2.17;;
12385;SDS011;6257;57.634;18.310;2022-08-07T07:00:30;6.77;;;2.10;;
12385;SDS011;6257;57.634;18.310;2022-08-07T07:02:58;5.47;;;1.93;;
12385;SDS011;6257;57.634;18.310;2022-08-07T07:05:26;9.57;;;2.33;;
12385;SDS011;6257;57.634;18.310;2022-08-07T07:07:54;10.13;;;2.47;;
12385;SDS011;6257;57.634;18.310;2022-08-07T07:10:25;6.70;;;2.30;;
12385;SDS011;6257;57.634;18.310;2022-08-07T07:12:55;6.67;;;1.90;;
12385;SDS011;6257;57.634;18.310;2022-08-07T07:15:27;8.23;;;2.47;;
12385;SDS011;6257;57.634;18.310;2022-08-07T07:17:58;7.53;;;2.13;;
12385;SDS011;6257;57.634;18.310;2022-08-07T07:20:31;9.17;;;2.30;;
12385;SDS011;6257;57.634;18.310;2022-08-07T07:23:01;6.10;;;2.40;;
12385;SDS011;6257;57.634;18.310;2022-08-07T07:25:29;9.77;;;2.20;;
12385;SDS011;6257;57.634;18.310;2022-08-07T07:27:59;5.53;;;1.90;;
12385;SDS011;6257;57.634;18.310;2022-08-07T07:30:31;10.17;;;2.20;;
12385;SDS011;6257;57.634;18.310;2022-08-07T07:33:01;5.53;;;2.20;;
12385;SDS011;6257;57.634;18.310;2022-08-07T07:35:30;6.70;;;2.00;;
12385;SDS011;6257;57.634;18.310;2022-08-07T07:37:59;6.30;;;2.23;;
12385;SDS011;6257;57.634;18.310;2022-08-07T07:40:28;7.97;;;2.27;;
12385;SDS011;6257;57.634;18.310;2022-08-07T07:42:58;6.67;;;2.53;;
12385;SDS011;6257;57.634;18.310;2022-08-07T07:45:28;4.73;;;1.83;;
12385;SDS011;6257;57.634;18.310;2022-08-07T07:47:57;8.30;;;2.37;;
12385;SDS011;6257;57.634;18.310;2022-08-07T07:50:26;7.57;;;2.40;;
12385;SDS011;6257;57.634;18.310;2022-08-07T07:52:55;6.03;;;2.00;;
12385;SDS011;6257;57.634;18.310;2022-08-07T07:55:22;4.90;;;1.97;;
12385;SDS011;6257;57.634;18.310;2022-08-07T07:57:52;8.20;;;2.10;;
12385;SDS011;6257;57.634;18.310;2022-08-07T08:00:23;8.77;;;2.27;;
12385;SDS011;6257;57.634;18.310;2022-08-07T08:02:52;6.60;;;2.10;;
12385;SDS011;6257;57.634;18.310;2022-08-07T08:05:22;9.60;;;2.30;;
12385;SDS011;6257;57.634;18.310;2022-08-07T08:07:50;4.63;;;1.73;;
12385;SDS011;6257;57.634;18.310;2022-08-07T08:10:17;12.60;;;2.73;;
12385;SDS011;6257;57.634;18.310;2022-08-07T08:12:46;6.63;;;2.13;;
12385;SDS011;6257;57.634;18.310;2022-08-07T08:15:15;5.43;;;1.80;;
12385;SDS011;6257;57.634;18.310;2022-08-07T08:17:44;7.43;;;2.20;;
12385;SDS011;6257;57.634;18.310;2022-08-07T08:20:12;5.57;;;2.00;;
12385;SDS011;6257;57.634;18.310;2022-08-07T08:22:41;7.63;;;2.10;;
12385;SDS011;6257;57.634;18.310;2022-08-07T08:25:30;8.33;;;2.30;;
12385;SDS011;6257;57.634;18.310;2022-08-07T08:28:19;6.93;;;2.00;;
12385;SDS011;6257;57.634;18.310;2022-08-07T08:30:50;7.53;;;2.00;;
12385;SDS011;6257;57.634;18.310;2022-08-07T08:33:23;5.97;;;1.90;;
12385;SDS011;6257;57.634;18.310;2022-08-07T08:35:54;4.83;;;1.53;;
12385;SDS011;6257;57.634;18.310;2022-08-07T08:38:24;5.13;;;1.93;;
12385;SDS011;6257;57.634;18.310;2022-08-07T08:40:57;7.07;;;1.87;;
12385;SDS011;6257;57.634;18.310;2022-08-07T08:43:32;7.10;;;1.77;;
12385;SDS011;6257;57.634;18.310;2022-08-07T08:46:04;10.57;;;2.10;;
12385;SDS011;6257;57.634;18.310;2022-08-07T08:48:38;5.43;;;2.17;;
12385;SDS011;6257;57.634;18.310;2022-08-07T08:51:14;5.90;;;1.93;;
12385;SDS011;6257;57.634;18.310;2022-08-07T08:53:46;3.87;;;1.70;;
12385;SDS011;6257;57.634;18.310;2022-08-07T08:56:20;4.40;;;2.03;;
12385;SDS011;6257;57.634;18.310;2022-08-07T08:58:52;5.60;;;2.10;;
12385;SDS011;6257;57.634;18.310;2022-08-07T09:01:23;7.80;;;2.17;;
12385;SDS011;6257;57.634;18.310;2022-08-07T09:04:03;5.40;;;2.20;;
12385;SDS011;6257;57.634;18.310;2022-08-07T09:06:38;7.50;;;2.27;;
12385;SDS011;6257;57.634;18.310;2022-08-07T09:09:14;7.30;;;2.23;;
12385;SDS011;6257;57.634;18.310;2022-08-07T09:11:55;5.20;;;1.87;;
12385;SDS011;6257;57.634;18.310;2022-08-07T09:14:35;8.30;;;2.33;;
12385;SDS011;6257;57.634;18.310;2022-08-07T09:17:09;6.50;;;2.00;;
12385;SDS011;6257;57.634;18.310;2022-08-07T09:19:48;7.03;;;2.47;;
12385;SDS011;6257;57.634;18.310;2022-08-07T09:22:28;6.37;;;2.10;;
12385;SDS011;6257;57.634;18.310;2022-08-07T09:25:06;7.57;;;2.50;;
12385;SDS011;6257;57.634;18.310;2022-08-07T09:27:39;7.17;;;2.30;;
12385;SDS011;6257;57.634;18.310;2022-08-07T09:30:09;6.07;;;2.50;;
12385;SDS011;6257;57.634;18.310;2022-08-07T09:32:53;6.43;;;2.07;;
12385;SDS011;6257;57.634;18.310;2022-08-07T09:35:31;7.27;;;2.43;;
12385;SDS011;6257;57.634;18.310;2022-08-07T09:38:05;6.60;;;2.17;;
12385;SDS011;6257;57.634;18.310;2022-08-07T09:40:41;5.87;;;2.23;;
12385;SDS011;6257;57.634;18.310;2022-08-07T09:43:22;9.00;;;2.43;;
12385;SDS011;6257;57.634;18.310;2022-08-07T09:45:58;5.33;;;2.03;;
12385;SDS011;6257;57.634;18.310;2022-08-07T09:48:39;9.40;;;2.07;;
12385;SDS011;6257;57.634;18.310;2022-08-07T09:51:24;7.93;;;2.20;;
12385;SDS011;6257;57.634;18.310;2022-08-07T09:54:11;7.37;;;2.37;;
12385;SDS011;6257;57.634;18.310;2022-08-07T09:56:57;6.67;;;2.27;;
12385;SDS011;6257;57.634;18.310;2022-08-07T09:59:57;5.70;;;2.03;;
12385;SDS011;6257;57.634;18.310;2022-08-07T10:02:51;5.00;;;2.20;;
12385;SDS011;6257;57.634;18.310;2022-08-07T10:08:41;7.10;;;2.20;;
12385;SDS011;6257;57.634;18.310;2022-08-07T10:11:21;6.47;;;2.07;;
12385;SDS011;6257;57.634;18.310;2022-08-07T10:14:04;4.70;;;2.33;;
12385;SDS011;6257;57.634;18.310;2022-08-07T10:16:48;5.60;;;2.00;;
12385;SDS011;6257;57.634;18.310;2022-08-07T10:19:42;7.50;;;2.20;;
12385;SDS011;6257;57.634;18.310;2022-08-07T10:22:21;6.17;;;2.27;;
12385;SDS011;6257;57.634;18.310;2022-08-07T10:25:11;5.60;;;2.30;;
12385;SDS011;6257;57.634;18.310;2022-08-07T10:28:02;6.30;;;2.63;;
12385;SDS011;6257;57.634;18.310;2022-08-07T10:30:56;3.77;;;1.90;;
12385;SDS011;6257;57.634;18.310;2022-08-07T10:33:47;4.17;;;1.83;;
12385;SDS011;6257;57.634;18.310;2022-08-07T10:36:26;8.90;;;1.90;;
12385;SDS011;6257;57.634;18.310;2022-08-07T10:39:02;4.60;;;1.93;;
12385;SDS011;6257;57.634;18.310;2022-08-07T10:41:39;5.83;;;1.93;;
12385;SDS011;6257;57.634;18.310;2022-08-07T10:44:11;4.77;;;1.77;;
12385;SDS011;6257;57.634;18.310;2022-08-07T10:46:47;4.33;;;1.93;;
12385;SDS011;6257;57.634;18.310;2022-08-07T10:49:22;4.53;;;2.17;;
12385;SDS011;6257;57.634;18.310;2022-08-07T10:52:01;5.80;;;2.10;;
12385;SDS011;6257;57.634;18.310;2022-08-07T10:54:34;6.37;;;1.80;;
12385;SDS011;6257;57.634;18.310;2022-08-07T10:57:09;3.03;;;1.47;;
12385;SDS011;6257;57.634;18.310;2022-08-07T10:59:47;3.03;;;1.70;;
12385;SDS011;6257;57.634;18.310;2022-08-07T11:02:27;4.33;;;1.87;;
12385;SDS011;6257;57.634;18.310;2022-08-07T11:05:01;5.03;;;2.00;;
12385;SDS011;6257;57.634;18.310;2022-08-07T11:07:38;4.10;;;2.00;;
12385;SDS011;6257;57.634;18.310;2022-08-07T11:10:12;4.53;;;1.67;;
12385;SDS011;6257;57.634;18.310;2022-08-07T11:12:47;6.47;;;1.83;;
12385;SDS011;6257;57.634;18.310;2022-08-07T11:15:22;4.53;;;1.80;;
12385;SDS011;6257;57.634;18.310;2022-08-07T11:17:57;5.40;;;2.00;;
12385;SDS011;6257;57.634;18.310;2022-08-07T11:20:30;3.70;;;1.80;;
12385;SDS011;6257;57.634;18.310;2022-08-07T11:23:08;7.30;;;2.10;;
12385;SDS011;6257;57.634;18.310;2022-08-07T11:25:45;5.33;;;1.73;;
12385;SDS011;6257;57.634;18.310;2022-08-07T11:28:20;5.27;;;1.80;;
12385;SDS011;6257;57.634;18.310;2022-08-07T11:30:53;5.63;;;2.20;;
12385;SDS011;6257;57.634;18.310;2022-08-07T11:33:27;2.83;;;1.70;;
12385;SDS011;6257;57.634;18.310;2022-08-07T11:36:06;5.37;;;1.67;;
12385;SDS011;6257;57.634;18.310;2022-08-07T11:38:40;4.70;;;1.97;;
12385;SDS011;6257;57.634;18.310;2022-08-07T11:41:17;5.63;;;2.03;;
12385;SDS011;6257;57.634;18.310;2022-08-07T11:43:51;5.47;;;2.17;;
12385;SDS011;6257;57.634;18.310;2022-08-07T11:46:40;5.97;;;1.90;;
12385;SDS011;6257;57.634;18.310;2022-08-07T11:49:20;5.37;;;2.30;;
12385;SDS011;6257;57.634;18.310;2022-08-07T11:52:06;4.60;;;1.97;;
12385;SDS011;6257;57.634;18.310;2022-08-07T11:54:49;4.57;;;1.83;;
12385;SDS011;6257;57.634;18.310;2022-08-07T11:57:27;4.07;;;1.80;;
12385;SDS011;6257;57.634;18.310;2022-08-07T12:00:04;5.87;;;2.13;;
12385;SDS011;6257;57.634;18.310;2022-08-07T12:02:46;5.97;;;2.30;;
12385;SDS011;6257;57.634;18.310;2022-08-07T12:05:28;4.27;;;2.10;;
12385;SDS011;6257;57.634;18.310;2022-08-07T12:08:06;4.93;;;2.57;;
12385;SDS011;6257;57.634;18.310;2022-08-07T12:10:40;2.93;;;1.93;;
12385;SDS011;6257;57.634;18.310;2022-08-07T12:13:13;3.93;;;1.80;;
12385;SDS011;6257;57.634;18.310;2022-08-07T12:15:50;3.33;;;1.90;;
12385;SDS011;6257;57.634;18.310;2022-08-07T12:18:21;4.30;;;1.93;;
12385;SDS011;6257;57.634;18.310;2022-08-07T12:20:56;5.73;;;2.10;;
12385;SDS011;6257;57.634;18.310;2022-08-07T12:23:33;6.90;;;2.17;;
12385;SDS011;6257;57.634;18.310;2022-08-07T12:26:08;4.10;;;1.90;;
12385;SDS011;6257;57.634;18.310;2022-08-07T12:28:40;4.33;;;2.10;;
12385;SDS011;6257;57.634;18.310;2022-08-07T12:31:16;4.60;;;1.87;;
12385;SDS011;6257;57.634;18.310;2022-08-07T12:33:55;4.83;;;2.07;;
12385;SDS011;6257;57.634;18.310;2022-08-07T12:36:23;3.80;;;1.60;;
12385;SDS011;6257;57.634;18.310;2022-08-07T12:38:51;4.30;;;2.00;;
12385;SDS011;6257;57.634;18.310;2022-08-07T12:41:20;5.20;;;1.90;;
12385;SDS011;6257;57.634;18.310;2022-08-07T12:43:49;5.93;;;2.23;;
12385;SDS011;6257;57.634;18.310;2022-08-07T12:46:25;4.90;;;2.00;;
12385;SDS011;6257;57.634;18.310;2022-08-07T12:49:03;4.17;;;1.73;;
12385;SDS011;6257;57.634;18.310;2022-08-07T12:51:39;5.13;;;1.90;;
12385;SDS011;6257;57.634;18.310;2022-08-07T12:54:14;3.80;;;1.60;;
12385;SDS011;6257;57.634;18.310;2022-08-07T12:56:56;2.93;;;1.70;;
12385;SDS011;6257;57.634;18.310;2022-08-07T12:59:26;2.17;;;1.70;;
12385;SDS011;6257;57.634;18.310;2022-08-07T13:01:59;4.33;;;1.63;;
12385;SDS011;6257;57.634;18.310;2022-08-07T13:04:34;5.13;;;1.80;;
12385;SDS011;6257;57.634;18.310;2022-08-07T13:07:16;3.47;;;1.40;;
12385;SDS011;6257;57.634;18.310;2022-08-07T13:10:15;4.10;;;1.90;;
12385;SDS011;6257;57.634;18.310;2022-08-07T13:12:51;3.43;;;1.63;;
12385;SDS011;6257;57.634;18.310;2022-08-07T13:15:35;3.93;;;1.60;;
12385;SDS011;6257;57.634;18.310;2022-08-07T13:18:17;6.03;;;1.90;;
12385;SDS011;6257;57.634;18.310;2022-08-07T13:20:56;3.87;;;1.80;;
12385;SDS011;6257;57.634;18.310;2022-08-07T13:23:31;3.27;;;1.57;;
12385;SDS011;6257;57.634;18.310;2022-08-07T13:26:06;6.03;;;1.90;;
12385;SDS011;6257;57.634;18.310;2022-08-07T13:28:38;4.87;;;1.80;;
12385;SDS011;6257;57.634;18.310;2022-08-07T13:31:13;3.33;;;1.57;;
12385;SDS011;6257;57.634;18.310;2022-08-07T13:33:49;4.67;;;1.63;;
12385;SDS011;6257;57.634;18.310;2022-08-07T13:36:23;3.47;;;1.60;;
12385;SDS011;6257;57.634;18.310;2022-08-07T13:38:57;3.90;;;1.57;;
12385;SDS011;6257;57.634;18.310;2022-08-07T13:41:32;4.43;;;1.80;;
12385;SDS011;6257;57.634;18.310;2022-08-07T13:44:04;5.40;;;2.00;;
12385;SDS011;6257;57.634;18.310;2022-08-07T13:46:34;3.60;;;1.50;;
12385;SDS011;6257;57.634;18.310;2022-08-07T13:49:06;3.70;;;1.70;;
12385;SDS011;6257;57.634;18.310;2022-08-07T13:51:36;3.60;;;1.70;;
12385;SDS011;6257;57.634;18.310;2022-08-07T13:54:06;4.47;;;1.60;;
12385;SDS011;6257;57.634;18.310;2022-08-07T13:56:36;4.13;;;1.77;;
12385;SDS011;6257;57.634;18.310;2022-08-07T13:59:06;4.07;;;2.07;;
12385;SDS011;6257;57.634;18.310;2022-08-07T14:01:41;4.77;;;1.53;;
12385;SDS011;6257;57.634;18.310;2022-08-07T14:04:13;3.87;;;1.80;;
12385;SDS011;6257;57.634;18.310;2022-08-07T14:06:43;2.63;;;1.60;;
12385;SDS011;6257;57.634;18.310;2022-08-07T14:09:14;4.17;;;1.50;;
12385;SDS011;6257;57.634;18.310;2022-08-07T14:11:45;5.03;;;1.60;;
12385;SDS011;6257;57.634;18.310;2022-08-07T14:14:17;3.80;;;1.50;;
12385;SDS011;6257;57.634;18.310;2022-08-07T14:16:46;2.90;;;1.67;;
12385;SDS011;6257;57.634;18.310;2022-08-07T14:19:17;3.13;;;1.67;;
12385;SDS011;6257;57.634;18.310;2022-08-07T14:21:48;3.37;;;1.50;;
12385;SDS011;6257;57.634;18.310;2022-08-07T14:24:22;1.90;;;1.40;;
12385;SDS011;6257;57.634;18.310;2022-08-07T14:26:55;3.67;;;1.53;;
12385;SDS011;6257;57.634;18.310;2022-08-07T14:29:24;3.03;;;1.50;;
12385;SDS011;6257;57.634;18.310;2022-08-07T14:31:56;2.60;;;1.40;;
12385;SDS011;6257;57.634;18.310;2022-08-07T14:34:28;3.13;;;1.37;;
12385;SDS011;6257;57.634;18.310;2022-08-07T14:36:58;3.50;;;1.67;;
12385;SDS011;6257;57.634;18.310;2022-08-07T14:39:27;3.27;;;1.50;;
12385;SDS011;6257;57.634;18.310;2022-08-07T14:41:55;2.33;;;1.40;;
12385;SDS011;6257;57.634;18.310;2022-08-07T14:44:24;2.00;;;1.40;;
12385;SDS011;6257;57.634;18.310;2022-08-07T14:46:53;4.47;;;1.50;;
12385;SDS011;6257;57.634;18.310;2022-08-07T14:49:23;2.40;;;1.53;;
12385;SDS011;6257;57.634;18.310;2022-08-07T14:51:56;2.53;;;1.50;;
12385;SDS011;6257;57.634;18.310;2022-08-07T14:54:27;4.60;;;1.40;;
12385;SDS011;6257;57.634;18.310;2022-08-07T14:56:56;3.20;;;1.23;;
12385;SDS011;6257;57.634;18.310;2022-08-07T14:59:25;3.27;;;1.37;;
12385;SDS011;6257;57.634;18.310;2022-08-07T15:01:53;2.33;;;1.30;;
12385;SDS011;6257;57.634;18.310;2022-08-07T15:04:23;3.97;;;1.40;;
12385;SDS011;6257;57.634;18.310;2022-08-07T15:06:53;3.17;;;1.53;;
12385;SDS011;6257;57.634;18.310;2022-08-07T15:09:20;2.87;;;1.60;;
12385;SDS011;6257;57.634;18.310;2022-08-07T15:11:50;3.10;;;1.50;;
12385;SDS011;6257;57.634;18.310;2022-08-07T15:14:21;4.43;;;1.70;;
12385;SDS011;6257;57.634;18.310;2022-08-07T15:16:52;3.40;;;1.60;;
12385;SDS011;6257;57.634;18.310;2022-08-07T15:19:27;4.50;;;1.60;;